KSKF/SKF METAR and TAF weather

Enter ICAO airport designator
Station Type Date Time Source
KSKF METAR 2019/08/22 03:56 UTC NOAA

KSKF 220356Z AUTO 14013KT 10SM CLR 30/20 A2996 RMK AO2 SLP137 T02950200 $


Station Type Date Time Source
KSKF Decoded METAR 2019/08/22 03:56 UTC NOAA

Station name not available
Aug 21, 2019 - 11:56 PM EDT / 2019.08.22 0356 UTC
Wind: from the SE (140 degrees) at 15 MPH (13 KT):0
Visibility: 10 mile(s):0
Sky conditions: clear
Temperature: 85.1 F (29.5 C)
Dew Point: 68.0 F (20.0 C)
Relative Humidity: 56%
Pressure (altimeter): 29.96 in. Hg (1014 hPa)
ob: KSKF 220356Z AUTO 14013KT 10SM CLR 30/20 A2996 RMK AO2 SLP137 T02950200
cycle: 4

Station Type Date Time Source
KSKF TAF 2019/08/22 02:30 UTC NOAA

TAF KSKF 220200Z 2202/2308 12009KT 9999 SCT060 SCT250 QNH2988INS
TEMPO 2202/2204 13012G20KT
BECMG 2209/2210 VRB04KT 9999 BKN015 QNH2993INS
TEMPO 2210/2214 SCT015
BECMG 2214/2215 14007KT 9999 SCT040 QNH2980INS TX37/2222Z TN25/2211Z

Example: see airport list